createdAt,value
2023-05-02T00:02:19.203Z,10.30
2023-05-02T00:04:48.866Z,10.30
2023-05-02T00:07:17.176Z,10.40
2023-05-02T00:09:45.521Z,10.40
2023-05-02T00:12:13.769Z,10.40
2023-05-02T00:14:42.088Z,10.40
2023-05-02T00:17:10.336Z,10.40
2023-05-02T00:19:40.521Z,10.40
2023-05-02T00:22:10.096Z,10.50
2023-05-02T00:24:38.372Z,10.50
2023-05-02T00:27:07.017Z,10.50
2023-05-02T00:29:35.143Z,10.50
2023-05-02T00:32:03.502Z,10.50
2023-05-02T00:34:31.912Z,10.50
2023-05-02T00:37:00.233Z,10.50
2023-05-02T00:39:29.908Z,10.60
2023-05-02T00:41:58.835Z,10.60
2023-05-02T00:44:26.952Z,10.60
2023-05-02T00:46:55.902Z,10.60
2023-05-02T00:49:24.244Z,10.60
2023-05-02T00:51:52.534Z,10.60
2023-05-02T00:54:21.035Z,10.60
2023-05-02T00:56:50.551Z,10.60
2023-05-02T00:59:19.108Z,10.60
2023-05-02T01:08:15.512Z,10.60
2023-05-02T01:10:53.742Z,10.70
2023-05-02T01:13:27.298Z,10.60
2023-05-02T01:15:57.538Z,10.60
2023-05-02T01:18:29.255Z,10.60
2023-05-02T01:21:01.716Z,10.60
2023-05-02T01:23:36.768Z,10.60
2023-05-02T01:26:16.959Z,10.60
2023-05-02T01:29:00.796Z,10.60
2023-05-02T01:31:32.413Z,10.60
2023-05-02T01:34:02.308Z,10.60
2023-05-02T01:36:32.997Z,10.60
2023-05-02T01:39:02.946Z,10.60
2023-05-02T01:41:33.522Z,10.60
2023-05-02T01:44:04.649Z,10.60
2023-05-02T01:46:35.877Z,10.60
2023-05-02T01:49:07.336Z,10.60
2023-05-02T01:51:38.881Z,10.60
2023-05-02T01:54:09.452Z,10.60
2023-05-02T01:56:39.697Z,10.60
2023-05-02T01:59:11.979Z,10.60
2023-05-02T02:01:41.520Z,10.60
2023-05-02T02:04:13.236Z,10.60
2023-05-02T02:06:45.835Z,10.60
2023-05-02T02:09:14.489Z,10.60
2023-05-02T02:11:48.736Z,10.60
2023-05-02T02:14:21.142Z,10.60
2023-05-02T02:16:52.250Z,10.60
2023-05-02T02:19:22.001Z,10.60
2023-05-02T02:21:51.976Z,10.60
2023-05-02T02:24:22.977Z,10.50
2023-05-02T02:26:52.100Z,10.50
2023-05-02T02:29:21.624Z,10.40
2023-05-02T02:31:49.783Z,10.40
2023-05-02T02:34:18.065Z,10.30
2023-05-02T02:36:49.140Z,10.30
2023-05-02T02:39:25.741Z,10.20
2023-05-02T02:42:09.067Z,10.20
2023-05-02T02:44:47.574Z,10.10
2023-05-02T02:47:25.019Z,10.10
2023-05-02T02:50:05.292Z,10.00
2023-05-02T02:52:41.578Z,9.90
2023-05-02T02:55:17.173Z,9.80
2023-05-02T02:57:54.804Z,9.80
2023-05-02T03:00:28.461Z,9.70
2023-05-02T03:02:57.866Z,9.70
2023-05-02T03:05:26.587Z,9.60
2023-05-02T03:07:54.915Z,9.60
2023-05-02T03:10:24.221Z,9.50
2023-05-02T03:12:55.625Z,9.50
2023-05-02T03:15:41.962Z,9.50
2023-05-02T03:18:10.180Z,9.40
2023-05-02T03:20:38.498Z,9.40
2023-05-02T03:23:06.605Z,9.40
2023-05-02T03:25:34.776Z,9.30
2023-05-02T03:28:03.073Z,9.30
2023-05-02T03:30:32.590Z,9.20
2023-05-02T03:33:01.841Z,9.20
2023-05-02T03:35:30.109Z,9.30
2023-05-02T03:37:58.492Z,9.30
2023-05-02T03:40:28.231Z,9.40
2023-05-02T03:42:56.432Z,9.40
2023-05-02T03:45:24.659Z,9.50
2023-05-02T03:47:54.187Z,9.50
2023-05-02T03:50:22.464Z,9.50
2023-05-02T03:52:50.573Z,9.60
2023-05-02T03:55:18.797Z,9.50
2023-05-02T03:57:47.207Z,9.60
2023-05-02T04:00:16.121Z,9.60
2023-05-02T04:02:44.496Z,9.60
2023-05-02T04:05:13.967Z,9.50
2023-05-02T04:07:42.441Z,9.50
2023-05-02T04:10:16.518Z,9.50
2023-05-02T04:12:44.756Z,9.50
2023-05-02T04:15:13.337Z,9.50
2023-05-02T04:17:41.563Z,9.40
2023-05-02T04:20:10.803Z,9.40
2023-05-02T04:22:40.900Z,9.40
2023-05-02T04:25:09.810Z,9.40
2023-05-02T04:27:38.522Z,9.40
2023-05-02T04:30:08.183Z,9.50
2023-05-02T04:32:36.368Z,9.50
2023-05-02T04:35:05.417Z,9.50
2023-05-02T04:37:33.678Z,9.60
2023-05-02T04:40:03.721Z,9.70
2023-05-02T04:42:31.835Z,9.70
2023-05-02T04:44:59.968Z,9.80
2023-05-02T04:47:28.215Z,9.80
2023-05-02T04:49:59.122Z,9.80
2023-05-02T04:52:27.447Z,9.90
2023-05-02T04:54:55.582Z,9.90
2023-05-02T04:57:25.151Z,10.00
2023-05-02T04:59:53.258Z,10.00
2023-05-02T05:02:21.449Z,10.00
2023-05-02T05:04:49.651Z,10.10
2023-05-02T05:07:17.828Z,10.10
2023-05-02T05:09:46.069Z,10.10
2023-05-02T05:12:14.176Z,10.10
2023-05-02T05:14:44.463Z,10.20
2023-05-02T05:17:12.617Z,10.20
2023-05-02T05:19:40.926Z,10.20
2023-05-02T05:22:09.960Z,10.20
2023-05-02T05:24:39.247Z,10.30
2023-05-02T05:27:07.577Z,10.30
2023-05-02T05:29:35.740Z,10.40
2023-05-02T05:32:05.968Z,10.40
2023-05-02T05:34:34.309Z,10.40
2023-05-02T05:37:02.482Z,10.50
2023-05-02T05:39:30.750Z,10.60
2023-05-02T05:41:59.113Z,10.60
2023-05-02T05:44:27.240Z,10.70
2023-05-02T05:46:55.466Z,10.60
2023-05-02T05:49:25.551Z,10.60
2023-05-02T05:51:53.859Z,10.60
2023-05-02T05:54:22.269Z,10.60
2023-05-02T05:56:50.517Z,10.60
2023-05-02T05:59:18.673Z,10.70
2023-05-02T06:01:46.967Z,10.70
2023-05-02T06:04:15.166Z,10.70
2023-05-02T06:06:44.768Z,10.70
2023-05-02T06:09:13.110Z,10.70
2023-05-02T06:11:41.240Z,10.60
2023-05-02T06:14:09.411Z,10.70
2023-05-02T06:16:38.181Z,10.70
2023-05-02T06:19:06.420Z,10.70
2023-05-02T06:21:34.545Z,10.70
2023-05-02T06:24:04.584Z,10.70
2023-05-02T06:26:32.826Z,10.80
2023-05-02T06:29:01.383Z,10.80
2023-05-02T06:31:29.765Z,10.80
2023-05-02T06:33:57.913Z,10.90
2023-05-02T06:36:26.121Z,10.90
2023-05-02T06:38:54.433Z,10.90
2023-05-02T06:41:23.951Z,10.90
2023-05-02T06:43:52.073Z,11.00
2023-05-02T06:46:20.909Z,11.10
2023-05-02T06:48:49.308Z,11.20
2023-05-02T06:51:17.642Z,11.40
2023-05-02T06:53:45.995Z,11.60
2023-05-02T06:56:14.132Z,11.80
2023-05-02T06:58:43.601Z,12.00
2023-05-02T07:01:12.708Z,11.90
2023-05-02T07:03:41.006Z,12.00
2023-05-02T07:06:09.549Z,12.10
2023-05-02T07:08:37.948Z,12.00
2023-05-02T07:11:06.213Z,12.10
2023-05-02T07:13:34.404Z,12.20
2023-05-02T07:16:04.762Z,12.40
2023-05-02T07:18:32.978Z,12.50
2023-05-02T07:21:01.403Z,12.60
2023-05-02T07:23:29.977Z,12.70
2023-05-02T07:25:58.183Z,13.10
2023-05-02T07:28:26.422Z,13.60
2023-05-02T07:30:54.905Z,13.80
2023-05-02T07:33:24.568Z,14.20
2023-05-02T07:35:53.568Z,14.60
2023-05-02T07:38:22.107Z,14.80
2023-05-02T07:40:50.278Z,15.00
2023-05-02T07:43:18.573Z,15.30
2023-05-02T07:45:47.113Z,15.30
2023-05-02T07:48:15.283Z,15.10
2023-05-02T07:50:45.303Z,15.00
2023-05-02T07:53:13.958Z,14.90
2023-05-02T07:55:42.187Z,14.60
2023-05-02T07:58:10.327Z,14.40
2023-05-02T08:00:40.136Z,14.60
2023-05-02T08:03:08.461Z,14.70
2023-05-02T08:05:36.718Z,14.60
2023-05-02T08:08:07.558Z,14.50
2023-05-02T08:10:35.682Z,14.40
2023-05-02T08:13:03.835Z,14.40
2023-05-02T08:15:32.180Z,14.80
2023-05-02T08:18:00.638Z,15.10
2023-05-02T08:20:28.861Z,15.00
2023-05-02T08:22:59.340Z,15.20
2023-05-02T08:25:30.488Z,15.20
2023-05-02T08:27:59.433Z,15.10
2023-05-02T08:30:27.768Z,15.10
2023-05-02T08:32:55.950Z,15.50
2023-05-02T08:35:24.852Z,16.00
2023-05-02T08:37:53.069Z,16.50
2023-05-02T08:40:33.991Z,16.90
2023-05-02T08:43:12.857Z,17.30
2023-05-02T08:45:43.610Z,17.60
2023-05-02T08:48:13.554Z,18.00
2023-05-02T08:50:45.388Z,18.30
2023-05-02T08:53:14.915Z,18.70
2023-05-02T08:55:46.229Z,19.00
2023-05-02T08:58:17.026Z,19.50
2023-05-02T09:00:49.771Z,19.50
2023-05-02T09:03:28.829Z,19.60
2023-05-02T09:06:07.135Z,19.40
2023-05-02T09:08:36.077Z,19.00
2023-05-02T09:11:08.001Z,18.50
2023-05-02T09:13:39.760Z,18.00
2023-05-02T09:16:10.054Z,18.10
2023-05-02T09:18:40.797Z,18.60
2023-05-02T09:21:12.528Z,18.70
2023-05-02T09:23:43.094Z,19.10
2023-05-02T09:26:15.806Z,19.10
2023-05-02T09:28:46.802Z,18.50
2023-05-02T09:31:22.894Z,18.10
2023-05-02T09:34:09.857Z,18.30
2023-05-02T09:36:41.792Z,19.20
2023-05-02T09:39:13.473Z,20.30
2023-05-02T09:41:42.495Z,21.20
2023-05-02T09:44:14.959Z,21.40
2023-05-02T09:46:44.231Z,20.50
2023-05-02T09:49:12.772Z,20.50
2023-05-02T09:51:41.629Z,20.20
2023-05-02T09:54:09.906Z,19.50
2023-05-02T09:56:53.546Z,19.10
2023-05-02T09:59:23.593Z,19.50
2023-05-02T10:01:59.342Z,19.90
2023-05-02T10:04:28.526Z,19.60
2023-05-02T10:06:57.356Z,18.80
2023-05-02T10:09:27.860Z,18.10
2023-05-02T10:11:57.948Z,18.00
2023-05-02T10:14:29.726Z,19.20
2023-05-02T10:17:02.608Z,20.20
2023-05-02T10:19:34.838Z,20.30
2023-05-02T10:22:04.070Z,20.60
2023-05-02T10:24:33.739Z,20.70
2023-05-02T10:27:03.499Z,19.50
2023-05-02T10:29:33.477Z,18.50
2023-05-02T10:32:04.811Z,18.40
2023-05-02T10:34:34.362Z,19.60
2023-05-02T10:37:02.697Z,20.40
2023-05-02T10:39:31.372Z,21.00
2023-05-02T10:42:02.278Z,21.80
2023-05-02T10:44:38.882Z,22.20
2023-05-02T10:47:23.376Z,22.30
2023-05-02T10:49:53.055Z,21.50
2023-05-02T10:52:29.211Z,21.20
2023-05-02T10:55:19.948Z,21.00
2023-05-02T10:58:22.642Z,20.40
2023-05-02T11:00:52.362Z,19.50
2023-05-02T11:03:54.974Z,19.10
2023-05-02T11:06:23.338Z,19.80
2023-05-02T11:08:51.618Z,20.20
2023-05-02T11:11:43.109Z,20.10
2023-05-02T11:14:14.001Z,20.60
2023-05-02T11:17:09.257Z,20.90
2023-05-02T11:20:27.146Z,21.10
2023-05-02T11:22:57.606Z,20.40
2023-05-02T11:25:37.334Z,19.90
2023-05-02T11:28:07.948Z,19.50
2023-05-02T11:30:48.600Z,19.20
2023-05-02T11:33:20.548Z,19.60
2023-05-02T11:35:49.914Z,19.50
2023-05-02T11:38:21.461Z,19.10
2023-05-02T11:40:57.864Z,18.90
2023-05-02T11:43:30.693Z,18.90
2023-05-02T11:46:00.791Z,19.00
2023-05-02T11:48:31.784Z,19.10
2023-05-02T11:51:05.234Z,19.10
2023-05-02T11:53:34.395Z,19.20
2023-05-02T11:56:05.874Z,19.60
2023-05-02T11:58:35.002Z,19.90
2023-05-02T12:01:14.511Z,20.20
2023-05-02T12:03:45.394Z,20.30
2023-05-02T12:06:16.304Z,20.30
2023-05-02T12:08:45.676Z,20.00
2023-05-02T12:11:15.831Z,20.20
2023-05-02T12:13:48.697Z,19.80
2023-05-02T12:16:17.685Z,19.90
2023-05-02T12:18:49.470Z,19.80
2023-05-02T12:21:18.113Z,19.90
2023-05-02T12:23:46.684Z,19.80
2023-05-02T12:26:18.499Z,19.20
2023-05-02T12:28:51.563Z,19.00
2023-05-02T12:31:20.310Z,19.20
2023-05-02T12:33:52.457Z,19.30
2023-05-02T12:36:20.991Z,19.40
2023-05-02T12:38:55.229Z,19.40
2023-05-02T12:41:33.358Z,19.30
2023-05-02T12:44:02.307Z,19.10
2023-05-02T12:46:31.981Z,19.10
2023-05-02T12:49:06.974Z,19.20
2023-05-02T12:51:35.474Z,19.10
2023-05-02T12:54:04.239Z,19.20
2023-05-02T12:56:39.482Z,19.10
2023-05-02T12:59:08.217Z,18.80
2023-05-02T13:01:36.552Z,18.60
2023-05-02T13:04:06.584Z,18.50
2023-05-02T13:06:37.920Z,18.40
2023-05-02T13:09:06.394Z,18.40
2023-05-02T13:11:34.633Z,18.40
2023-05-02T13:14:05.223Z,18.20
2023-05-02T13:16:36.813Z,18.30
2023-05-02T13:19:06.905Z,18.10
2023-05-02T13:21:35.072Z,18.20
2023-05-02T13:24:04.310Z,18.40
2023-05-02T13:26:32.688Z,18.60
2023-05-02T13:29:00.956Z,18.80
2023-05-02T13:31:29.501Z,18.90
2023-05-02T13:33:58.380Z,19.00
2023-05-02T13:36:27.960Z,18.90
2023-05-02T13:38:56.392Z,18.90
2023-05-02T13:41:25.227Z,19.00
2023-05-02T13:43:53.949Z,19.10
2023-05-02T13:46:22.253Z,19.20
2023-05-02T13:48:50.573Z,19.40
2023-05-02T13:51:18.702Z,19.50
2023-05-02T13:53:48.554Z,19.50
2023-05-02T13:56:17.132Z,19.60
2023-05-02T13:58:45.433Z,19.50
2023-05-02T14:01:13.791Z,19.30
2023-05-02T14:03:44.407Z,19.10
2023-05-02T14:06:12.721Z,19.10
2023-05-02T14:08:41.238Z,19.20
2023-05-02T14:11:11.384Z,19.20
2023-05-02T14:13:39.515Z,19.30
2023-05-02T14:16:07.955Z,19.50
2023-05-02T14:18:36.296Z,19.60
2023-05-02T14:21:04.675Z,19.90
2023-05-02T14:23:32.835Z,20.00
2023-05-02T14:26:02.058Z,20.00
2023-05-02T14:28:31.641Z,20.00
2023-05-02T14:31:00.290Z,20.10
2023-05-02T14:33:28.649Z,20.20
2023-05-02T14:35:56.806Z,20.30
2023-05-02T14:38:24.960Z,20.20
2023-05-02T14:40:53.299Z,20.20
2023-05-02T14:43:21.591Z,20.20
2023-05-02T14:45:51.412Z,20.20
2023-05-02T14:48:19.777Z,20.20
2023-05-02T14:50:48.038Z,20.10
2023-05-02T14:53:17.593Z,20.10
2023-05-02T14:55:46.060Z,20.00
2023-05-02T14:58:20.634Z,20.10
2023-05-02T15:00:50.694Z,20.00
2023-05-02T15:03:19.160Z,20.30
2023-05-02T15:05:47.510Z,20.30
2023-05-02T15:08:16.072Z,20.40
2023-05-02T15:10:44.374Z,20.50
2023-05-02T15:13:12.666Z,20.50
2023-05-02T15:15:41.263Z,20.50
2023-05-02T15:18:10.830Z,20.70
2023-05-02T15:20:39.224Z,20.60
2023-05-02T15:23:07.546Z,20.60
2023-05-02T15:25:35.750Z,20.60
2023-05-02T15:28:04.212Z,20.40
2023-05-02T15:30:32.637Z,20.00
2023-05-02T15:33:01.118Z,20.00
2023-05-02T15:35:31.582Z,20.10
2023-05-02T15:37:59.936Z,20.20
2023-05-02T15:40:28.482Z,20.00
2023-05-02T15:42:56.836Z,19.80
2023-05-02T15:45:25.116Z,19.80
2023-05-02T15:47:53.285Z,19.70
2023-05-02T15:50:21.747Z,19.80
2023-05-02T15:52:51.497Z,19.90
2023-05-02T15:55:19.848Z,19.90
2023-05-02T15:57:51.851Z,19.50
2023-05-02T16:00:20.413Z,19.50
2023-05-02T16:02:48.611Z,19.80
2023-05-02T16:05:17.372Z,20.00
2023-05-02T16:07:45.695Z,20.00
2023-05-02T16:10:15.193Z,19.70
2023-05-02T16:12:43.649Z,19.80
2023-05-02T16:15:12.206Z,19.80
2023-05-02T16:17:42.985Z,19.80
2023-05-02T16:20:12.932Z,19.30
2023-05-02T16:22:44.686Z,18.80
2023-05-02T16:25:14.712Z,18.90
2023-05-02T16:27:43.269Z,18.80
2023-05-02T16:30:12.256Z,19.10
2023-05-02T16:32:40.660Z,19.20
2023-05-02T16:35:12.859Z,19.20
2023-05-02T16:37:42.339Z,19.20
2023-05-02T16:40:12.260Z,19.10
2023-05-02T16:42:41.796Z,19.10
2023-05-02T16:45:11.321Z,19.20
2023-05-02T16:47:39.589Z,19.10
2023-05-02T16:50:09.359Z,18.90
2023-05-02T16:52:38.189Z,19.00
2023-05-02T16:55:07.272Z,19.00
2023-05-02T16:57:35.423Z,19.00
2023-05-02T17:00:05.936Z,18.90
2023-05-02T17:02:34.523Z,18.60
2023-05-02T17:05:02.768Z,18.40
2023-05-02T17:07:30.967Z,18.20
2023-05-02T17:09:59.520Z,17.90
2023-05-02T17:12:27.730Z,17.90
2023-05-02T17:14:56.136Z,17.70
2023-05-02T17:17:25.876Z,17.90
2023-05-02T17:19:54.016Z,18.10
2023-05-02T17:22:22.397Z,17.90
2023-05-02T17:24:52.953Z,17.80
2023-05-02T17:27:21.509Z,17.70
2023-05-02T17:29:49.748Z,17.40
2023-05-02T17:32:18.480Z,17.50
2023-05-02T17:34:47.940Z,17.40
2023-05-02T17:37:16.163Z,17.30
2023-05-02T17:39:44.404Z,17.20
2023-05-02T17:42:12.631Z,17.00
2023-05-02T17:44:41.199Z,16.90
2023-05-02T17:47:09.632Z,16.80
2023-05-02T17:49:37.760Z,16.70
2023-05-02T17:52:07.352Z,16.70
2023-05-02T17:54:35.620Z,16.60
2023-05-02T17:57:04.673Z,16.50
2023-05-02T17:59:33.763Z,16.50
2023-05-02T18:02:02.013Z,16.30
2023-05-02T18:04:30.299Z,16.20
2023-05-02T18:06:58.663Z,16.00
2023-05-02T18:09:28.146Z,15.90
2023-05-02T18:12:04.025Z,15.80
2023-05-02T18:14:32.511Z,15.60
2023-05-02T18:17:00.683Z,15.40
2023-05-02T18:19:28.887Z,15.20
2023-05-02T18:21:57.131Z,15.00
2023-05-02T18:24:25.796Z,14.80
2023-05-02T18:26:55.466Z,14.60
2023-05-02T18:29:23.606Z,14.50
2023-05-02T18:31:52.725Z,14.30
2023-05-02T18:34:21.186Z,14.00
2023-05-02T18:36:49.386Z,13.80
2023-05-02T18:39:18.134Z,13.60
2023-05-02T18:41:46.409Z,13.40
2023-05-02T18:44:15.996Z,13.20
2023-05-02T18:46:44.292Z,13.10
2023-05-02T18:49:13.008Z,12.90
2023-05-02T18:51:41.580Z,12.80
2023-05-02T18:54:09.792Z,12.70
2023-05-02T18:56:38.110Z,12.60
2023-05-02T18:59:06.691Z,12.50
2023-05-02T19:01:36.366Z,12.30
2023-05-02T19:04:04.836Z,12.20
2023-05-02T19:06:33.324Z,12.10
2023-05-02T19:09:01.825Z,12.00
2023-05-02T19:11:30.137Z,11.80
2023-05-02T19:14:00.660Z,11.70
2023-05-02T19:16:29.247Z,11.70
2023-05-02T19:18:58.987Z,11.50
2023-05-02T19:21:27.973Z,11.40
2023-05-02T19:23:56.712Z,11.30
2023-05-02T19:26:25.220Z,11.20
2023-05-02T19:28:53.450Z,11.10
2023-05-02T19:31:23.453Z,11.10
2023-05-02T19:33:52.316Z,11.00
2023-05-02T19:36:23.299Z,10.90
2023-05-02T19:38:53.909Z,10.80
2023-05-02T19:41:23.180Z,10.70
2023-05-02T19:43:51.947Z,10.70
2023-05-02T19:46:20.906Z,10.60
2023-05-02T19:48:49.308Z,10.50
2023-05-02T19:51:17.545Z,10.50
2023-05-02T19:53:47.373Z,10.30
2023-05-02T19:56:15.548Z,10.30
2023-05-02T19:58:43.802Z,10.20
2023-05-02T20:01:12.428Z,10.20
2023-05-02T20:03:40.817Z,10.10
2023-05-02T20:06:09.149Z,10.00
2023-05-02T20:08:37.550Z,10.00
2023-05-02T20:11:07.170Z,9.90
2023-05-02T20:13:35.354Z,9.80
2023-05-02T20:16:03.890Z,9.70
2023-05-02T20:18:32.103Z,9.70
2023-05-02T20:21:00.326Z,9.60
2023-05-02T20:23:28.632Z,9.60
2023-05-02T20:25:56.862Z,9.50
2023-05-02T20:28:26.811Z,9.40
2023-05-02T20:30:55.643Z,9.40
2023-05-02T20:33:27.564Z,9.40
2023-05-02T20:36:02.885Z,9.30
2023-05-02T20:38:31.175Z,9.30
2023-05-02T20:40:59.347Z,9.20
2023-05-02T20:43:29.521Z,9.10
2023-05-02T20:45:57.831Z,9.10
2023-05-02T20:48:26.235Z,9.00
2023-05-02T20:50:55.352Z,9.00
2023-05-02T20:53:24.127Z,8.90
2023-05-02T20:55:52.443Z,8.80
2023-05-02T20:58:21.133Z,8.70
2023-05-02T21:00:52.618Z,8.70
2023-05-02T21:03:21.414Z,8.70
2023-05-02T21:05:53.626Z,8.60
2023-05-02T21:08:25.248Z,8.60
2023-05-02T21:10:54.708Z,8.60
2023-05-02T21:13:23.353Z,8.50
2023-05-02T21:15:53.014Z,8.50
2023-05-02T21:18:21.706Z,8.40
2023-05-02T21:20:50.068Z,8.40
2023-05-02T21:23:18.554Z,8.30
2023-05-02T21:25:47.203Z,8.30
2023-05-02T21:28:15.346Z,8.20
2023-05-02T21:30:43.669Z,8.20
2023-05-02T21:33:15.591Z,8.10
2023-05-02T21:35:43.876Z,8.10
2023-05-02T21:38:11.995Z,8.00
2023-05-02T21:40:40.273Z,8.00
2023-05-02T21:43:08.585Z,8.00
2023-05-02T21:45:45.388Z,7.90
2023-05-02T21:48:15.431Z,7.90
2023-05-02T21:50:44.563Z,7.80
2023-05-02T21:53:13.132Z,7.70
2023-05-02T21:55:41.459Z,7.70
2023-05-02T21:58:10.842Z,7.70
2023-05-02T22:00:40.114Z,7.70
2023-05-02T22:03:11.699Z,7.60
2023-05-02T22:05:42.535Z,7.60
2023-05-02T22:08:12.459Z,7.50
2023-05-02T22:10:41.950Z,7.40
2023-05-02T22:13:12.801Z,7.40
2023-05-02T22:15:42.903Z,7.30
2023-05-02T22:18:11.056Z,7.20
2023-05-02T22:20:39.324Z,7.20
2023-05-02T22:23:08.976Z,7.20
2023-05-02T22:25:37.327Z,7.10
2023-05-02T22:28:07.082Z,7.10
2023-05-02T22:30:35.413Z,7.00
2023-05-02T22:33:04.120Z,7.00
2023-05-02T22:35:32.310Z,6.90
2023-05-02T22:38:01.986Z,6.80
2023-05-02T22:40:32.598Z,6.80
2023-05-02T22:43:01.686Z,6.70
2023-05-02T22:45:29.849Z,6.70
2023-05-02T22:47:58.088Z,6.60
2023-05-02T22:50:27.529Z,6.60
2023-05-02T22:52:57.435Z,6.60
2023-05-02T22:55:25.838Z,6.50
2023-05-02T22:57:55.795Z,6.50
2023-05-02T23:00:25.245Z,6.50
2023-05-02T23:02:53.581Z,6.40
2023-05-02T23:05:22.392Z,6.40
2023-05-02T23:07:50.627Z,6.40
2023-05-02T23:10:20.707Z,6.30
2023-05-02T23:12:49.028Z,6.30
2023-05-02T23:15:18.717Z,6.20
2023-05-02T23:17:46.973Z,6.20
2023-05-02T23:20:19.514Z,6.20
2023-05-02T23:22:51.239Z,6.20
2023-05-02T23:25:21.101Z,6.20
2023-05-02T23:27:49.177Z,6.10
2023-05-02T23:30:18.833Z,6.10
2023-05-02T23:32:47.414Z,6.10
2023-05-02T23:35:15.668Z,6.10
2023-05-02T23:37:44.474Z,6.10
2023-05-02T23:40:13.529Z,6.10
2023-05-02T23:42:42.056Z,6.00
2023-05-02T23:45:11.106Z,6.00
2023-05-02T23:47:40.891Z,6.00
2023-05-02T23:50:09.848Z,6.00
2023-05-02T23:52:38.033Z,6.00
2023-05-02T23:55:10.476Z,6.00
2023-05-02T23:57:39.081Z,6.10
